This is the latest recevied weather packets stored in our database for station/object G1YBJ-13. If no packets are shown the sender has not sent any weather packets the latest 10 day(s).
| Time | Temp. | Humidity | Pressure | Rain* | Wind** | Luminosity | Snow |
|---|---|---|---|---|---|---|---|
| 1777438682 | 5.56° C | 87% | 1026.6 hPa | - | - | - | - |
| 1777437781 | 5.56° C | 86% | 1026.4 hPa | - | - | - | - |
| 1777436879 | 5.56° C | 86% | 1026.4 hPa | - | - | - | - |
| 1777435977 | 5.56° C | 88% | 1026.5 hPa | - | - | - | - |
| 1777435077 | 5.56° C | 85% | 1026.4 hPa | - | - | - | - |
| 1777434175 | 5.56° C | 85% | 1026.5 hPa | - | - | - | - |
| 1777433274 | 5.56° C | 86% | 1026.6 hPa | - | - | - | - |
| 1777432371 | 5.56° C | 87% | 1026.7 hPa | - | - | - | - |
| 1777431470 | 5.56° C | 85% | 1026.5 hPa | - | - | - | - |
| 1777430568 | 5.56° C | 84% | 1026.5 hPa | - | - | - | - |
| 1777429667 | 5.56° C | 84% | 1026.6 hPa | - | - | - | - |
| 1777428766 | 5.56° C | 84% | 1026.7 hPa | - | - | - | - |
| 1777427865 | 5.56° C | 86% | 1026.9 hPa | - | - | - | - |
| 1777426964 | 5.56° C | 85% | 1026.9 hPa | - | - | - | - |
| 1777426063 | 5.56° C | 84% | 1027.1 hPa | - | - | - | - |
| 1777425163 | 5.56° C | 84% | 1027.1 hPa | - | - | - | - |
| 1777424262 | 5.56° C | 84% | 1027.2 hPa | - | - | - | - |
| 1777423361 | 5.56° C | 83% | 1027.2 hPa | - | - | - | - |
| 1777422461 | 5.56° C | 83% | 1027.3 hPa | - | - | - | - |
| 1777421559 | 6.11° C | 83% | 1027.4 hPa | - | - | - | - |
| 1777420657 | 6.11° C | 82% | 1027.4 hPa | - | - | - | - |
| 1777419755 | 6.11° C | 82% | 1027.4 hPa | - | - | - | - |
| 1777418853 | 6.11° C | 83% | 1027.5 hPa | - | - | - | - |
| 1777417952 | 6.67° C | 80% | 1027.5 hPa | - | - | - | - |
| 1777417052 | 6.67° C | 80% | 1027.5 hPa | - | - | - | - |
* Rain since midnight (hover to see other rain measurements)
** Current wind speed in m/s (hover to see current wind gust speed)